createdAt,value
2019-03-20T00:02:37.091Z,70.05
2019-03-20T00:06:42.734Z,69.72
2019-03-20T00:10:47.909Z,70.02
2019-03-20T00:14:53.167Z,70.05
2019-03-20T00:18:59.706Z,69.16
2019-03-20T00:23:04.975Z,69.60
2019-03-20T00:27:11.829Z,69.55
2019-03-20T00:31:17.203Z,69.98
2019-03-20T00:35:22.521Z,71.35
2019-03-20T00:39:27.774Z,73.25
2019-03-20T00:43:33.006Z,72.77
2019-03-20T00:47:41.990Z,72.63
2019-03-20T00:51:47.212Z,73.39
2019-03-20T00:55:52.444Z,74.50
2019-03-20T00:59:57.563Z,74.70
2019-03-20T01:04:02.820Z,74.31
2019-03-20T01:08:08.009Z,73.72
2019-03-20T01:12:13.264Z,74.04
2019-03-20T01:16:18.534Z,73.23
2019-03-20T01:20:23.744Z,72.05
2019-03-20T01:24:28.888Z,72.53
2019-03-20T01:28:34.056Z,71.11
2019-03-20T01:32:39.286Z,70.23
2019-03-20T01:36:44.571Z,70.07
2019-03-20T01:40:49.876Z,69.82
2019-03-20T01:44:55.645Z,70.49
2019-03-20T01:49:00.950Z,71.30
2019-03-20T01:53:06.205Z,71.27
2019-03-20T01:57:11.430Z,72.36
2019-03-20T02:01:16.594Z,73.02
2019-03-20T02:05:21.922Z,74.24
2019-03-20T02:09:27.268Z,74.28
2019-03-20T02:13:43.937Z,74.79
2019-03-20T02:17:49.275Z,73.21
2019-03-20T02:21:54.572Z,72.10
2019-03-20T02:25:59.853Z,72.59
2019-03-20T02:30:44.741Z,72.19
2019-03-20T02:39:39.379Z,71.55
2019-03-20T02:43:44.650Z,71.81
2019-03-20T02:47:51.451Z,72.26
2019-03-20T02:51:56.656Z,72.12
2019-03-20T02:56:01.787Z,71.82
2019-03-20T03:00:47.039Z,71.86
2019-03-20T03:04:52.234Z,71.90
2019-03-20T03:08:57.436Z,71.90
2019-03-20T03:13:02.817Z,72.18
2019-03-20T03:17:07.984Z,71.61
2019-03-20T03:21:13.116Z,72.54
2019-03-20T03:25:20.922Z,71.99
2019-03-20T03:29:26.304Z,72.62
2019-03-20T03:33:31.670Z,73.45
2019-03-20T03:37:36.823Z,73.13
2019-03-20T03:41:42.013Z,73.03
2019-03-20T03:45:47.538Z,73.62
2019-03-20T03:49:52.792Z,73.23
2019-03-20T03:53:57.930Z,73.37
2019-03-20T03:58:22.262Z,73.52
2019-03-20T04:02:28.692Z,72.90
2019-03-20T04:06:35.886Z,72.47
2019-03-20T04:10:59.923Z,73.73
2019-03-20T04:15:05.454Z,73.49
2019-03-20T04:19:10.697Z,72.60
2019-03-20T04:23:27.877Z,72.48
2019-03-20T04:27:33.130Z,71.54
2019-03-20T04:31:38.323Z,72.33
2019-03-20T04:36:02.630Z,71.25
2019-03-20T04:40:19.048Z,70.47
2019-03-20T04:44:24.188Z,70.47
2019-03-20T04:48:29.748Z,70.13
2019-03-20T04:52:35.058Z,69.85
2019-03-20T04:56:41.825Z,69.49
2019-03-20T05:00:47.736Z,69.63
2019-03-20T05:04:52.838Z,69.06
2019-03-20T05:08:58.068Z,69.13
2019-03-20T05:13:03.244Z,68.44
2019-03-20T05:17:08.464Z,68.74
2019-03-20T05:21:13.708Z,68.72
2019-03-20T05:25:18.947Z,67.77
2019-03-20T05:29:24.298Z,68.80
2019-03-20T05:33:30.944Z,68.63
2019-03-20T05:37:36.301Z,68.29
2019-03-20T05:41:49.345Z,68.22
2019-03-20T05:45:56.517Z,68.09
2019-03-20T05:50:01.777Z,68.30
2019-03-20T05:54:07.114Z,67.59
2019-03-20T05:58:12.430Z,67.80
2019-03-20T06:02:17.688Z,67.28
2019-03-20T06:06:22.864Z,66.83
2019-03-20T06:10:28.763Z,67.72
2019-03-20T06:15:15.651Z,66.86
2019-03-20T06:19:20.894Z,66.20
2019-03-20T06:23:27.892Z,65.98
2019-03-20T06:27:33.212Z,65.91
2019-03-20T06:31:41.697Z,66.53
2019-03-20T06:36:28.169Z,66.54
2019-03-20T06:40:36.612Z,65.51
2019-03-20T06:49:20.722Z,65.75
2019-03-20T06:53:28.314Z,66.29
2019-03-20T06:57:33.481Z,65.49
2019-03-20T07:01:38.725Z,65.96
2019-03-20T07:11:16.074Z,64.52
2019-03-20T07:15:21.226Z,63.74
2019-03-20T07:19:26.488Z,63.91
2019-03-20T07:23:31.697Z,65.35
2019-03-20T07:27:38.513Z,64.94
2019-03-20T07:31:43.698Z,61.73
2019-03-20T07:35:48.844Z,61.59
2019-03-20T07:39:54.322Z,62.07
2019-03-20T07:43:59.490Z,61.34
2019-03-20T07:48:04.619Z,61.60
2019-03-20T07:52:09.868Z,61.74
2019-03-20T07:56:15.009Z,61.62
2019-03-20T08:00:20.111Z,61.33
2019-03-20T08:04:25.232Z,60.31
2019-03-20T08:08:30.446Z,60.35
2019-03-20T08:12:35.646Z,60.69
2019-03-20T08:16:40.872Z,60.73
2019-03-20T08:20:48.032Z,59.87
2019-03-20T08:24:55.642Z,59.71
2019-03-20T08:29:05.671Z,58.86
2019-03-20T08:33:11.594Z,59.40
2019-03-20T08:37:16.773Z,59.47
2019-03-20T08:41:21.975Z,59.74
2019-03-20T08:45:27.166Z,58.94
2019-03-20T08:49:32.368Z,58.73
2019-03-20T08:53:37.566Z,58.47
2019-03-20T08:57:42.983Z,58.50
2019-03-20T09:01:50.366Z,58.73
2019-03-20T09:06:07.457Z,58.75
2019-03-20T09:10:10.220Z,58.78
2019-03-20T09:14:15.367Z,58.71
2019-03-20T09:18:20.550Z,58.74
2019-03-20T09:22:44.849Z,57.44
2019-03-20T09:26:50.104Z,56.90
2019-03-20T09:30:55.235Z,57.47
2019-03-20T09:35:00.525Z,57.50
2019-03-20T09:39:08.226Z,56.87
2019-03-20T09:43:13.828Z,56.00
2019-03-20T09:47:20.202Z,54.93
2019-03-20T09:51:38.978Z,55.51
2019-03-20T09:55:46.102Z,54.66
2019-03-20T09:59:53.054Z,54.44
2019-03-20T10:03:58.391Z,55.04
2019-03-20T10:08:22.750Z,55.26
2019-03-20T10:12:27.960Z,55.37
2019-03-20T10:16:33.460Z,54.19
2019-03-20T10:20:38.839Z,54.27
2019-03-20T10:24:44.094Z,54.27
2019-03-20T10:28:50.837Z,54.03
2019-03-20T10:32:56.133Z,53.22
2019-03-20T10:37:02.503Z,53.17
2019-03-20T10:41:07.727Z,52.82
2019-03-20T10:45:13.770Z,53.15
2019-03-20T10:49:18.970Z,52.61
2019-03-20T10:53:24.082Z,53.62
2019-03-20T10:57:29.188Z,53.56
2019-03-20T11:01:43.964Z,52.89
2019-03-20T11:05:49.142Z,52.51
2019-03-20T11:09:54.339Z,52.47
2019-03-20T11:13:59.578Z,52.45
2019-03-20T11:18:05.230Z,51.42
2019-03-20T11:22:18.775Z,51.50
2019-03-20T11:26:38.007Z,51.20
2019-03-20T11:30:43.526Z,51.26
2019-03-20T11:34:48.662Z,50.75
2019-03-20T11:38:53.796Z,49.70
2019-03-20T11:47:48.794Z,49.68
2019-03-20T11:56:25.962Z,48.40
2019-03-20T12:00:31.111Z,48.48
2019-03-20T12:04:36.232Z,46.83
2019-03-20T12:08:41.375Z,46.21
2019-03-20T12:12:46.520Z,49.23
2019-03-20T12:16:51.739Z,48.85
2019-03-20T12:20:57.054Z,48.88
2019-03-20T12:25:02.226Z,50.42
2019-03-20T12:29:16.034Z,50.09
2019-03-20T12:33:21.228Z,48.98
2019-03-20T12:37:27.428Z,49.74
2019-03-20T12:41:32.635Z,51.00
2019-03-20T12:45:37.799Z,52.10
2019-03-20T12:49:43.016Z,51.85
2019-03-20T12:53:48.184Z,49.85
2019-03-20T13:01:57.130Z,50.14
2019-03-20T13:06:02.465Z,51.48
2019-03-20T13:10:09.823Z,51.80
2019-03-20T13:19:03.670Z,52.07
2019-03-20T13:23:12.149Z,52.41
2019-03-20T13:27:17.335Z,51.61
2019-03-20T13:31:23.123Z,52.35
2019-03-20T13:35:28.337Z,52.44
2019-03-20T13:39:33.486Z,52.29
2019-03-20T13:43:38.709Z,52.38
2019-03-20T13:47:43.903Z,52.71
2019-03-20T13:51:49.137Z,51.66
2019-03-20T13:55:54.329Z,51.57
2019-03-20T13:59:59.456Z,50.55
2019-03-20T14:04:06.330Z,50.19
2019-03-20T14:08:11.534Z,51.24
2019-03-20T14:12:16.645Z,50.44
2019-03-20T14:16:21.848Z,51.12
2019-03-20T14:20:26.989Z,50.84
2019-03-20T14:24:32.233Z,51.96
2019-03-20T14:28:37.461Z,51.94
2019-03-20T14:32:55.270Z,52.31
2019-03-20T14:37:00.511Z,52.56
2019-03-20T14:41:05.833Z,52.37
2019-03-20T14:45:12.791Z,52.91
2019-03-20T14:49:43.833Z,52.09
2019-03-20T14:53:57.731Z,51.94
2019-03-20T14:58:03.779Z,52.06
2019-03-20T15:02:10.423Z,51.51
2019-03-20T15:06:17.223Z,52.17
2019-03-20T15:10:22.455Z,52.15
2019-03-20T15:14:27.655Z,53.11
2019-03-20T15:18:32.800Z,52.56
2019-03-20T15:22:39.104Z,53.39
2019-03-20T15:26:44.213Z,52.18
2019-03-20T15:30:49.416Z,51.89
2019-03-20T15:34:54.668Z,52.09
2019-03-20T15:39:01.456Z,52.38
2019-03-20T15:43:08.232Z,51.63
2019-03-20T15:47:14.860Z,51.68
2019-03-20T15:51:20.111Z,50.04
2019-03-20T15:55:27.724Z,47.82
2019-03-20T15:59:32.914Z,46.72
2019-03-20T16:03:38.808Z,46.79
2019-03-20T16:07:43.934Z,47.80
2019-03-20T16:11:49.156Z,49.53
2019-03-20T16:15:54.363Z,49.43
2019-03-20T16:20:01.099Z,48.86
2019-03-20T16:24:06.413Z,49.42
2019-03-20T16:28:11.993Z,50.38
2019-03-20T16:36:33.422Z,49.94
2019-03-20T16:40:38.856Z,49.63
2019-03-20T16:44:45.299Z,49.39
2019-03-20T16:48:50.599Z,50.39
2019-03-20T16:52:56.945Z,49.99
2019-03-20T16:57:02.505Z,50.86
2019-03-20T17:01:07.675Z,52.58
2019-03-20T17:05:12.894Z,53.60
2019-03-20T17:09:18.406Z,53.38
2019-03-20T17:13:23.572Z,54.29
2019-03-20T17:17:28.763Z,54.43
2019-03-20T17:21:33.908Z,54.84
2019-03-20T17:25:39.193Z,56.01
2019-03-20T17:29:58.365Z,56.07
2019-03-20T17:34:10.398Z,56.29
2019-03-20T17:38:15.545Z,56.96
2019-03-20T17:42:20.624Z,57.37
2019-03-20T17:46:25.931Z,57.29
2019-03-20T17:50:42.456Z,57.96
2019-03-20T17:54:47.574Z,57.89
2019-03-20T17:58:52.760Z,57.52
2019-03-20T18:03:02.464Z,57.60
2019-03-20T18:11:59.216Z,57.76
2019-03-20T18:16:04.417Z,57.83
2019-03-20T18:20:11.141Z,58.11
2019-03-20T18:24:16.448Z,58.19
2019-03-20T18:28:21.853Z,58.79
2019-03-20T18:32:26.998Z,59.00
2019-03-20T18:40:52.446Z,59.76
2019-03-20T18:44:57.605Z,59.93
2019-03-20T18:49:02.783Z,60.08
2019-03-20T18:53:09.597Z,60.73
2019-03-20T18:57:14.846Z,61.55
2019-03-20T19:01:20.493Z,61.25
2019-03-20T19:05:56.268Z,60.57
2019-03-20T19:10:01.633Z,60.57
2019-03-20T19:14:07.271Z,63.70
2019-03-20T19:18:23.906Z,64.57
2019-03-20T19:22:41.227Z,64.72
2019-03-20T19:26:46.997Z,65.59
2019-03-20T19:30:52.647Z,64.93
2019-03-20T19:39:38.981Z,63.72
2019-03-20T19:43:46.124Z,66.43
2019-03-20T19:47:51.306Z,65.11
2019-03-20T19:51:58.837Z,66.60
2019-03-20T19:56:07.288Z,64.97
2019-03-20T20:00:54.389Z,65.59
2019-03-20T20:04:59.848Z,66.73
2019-03-20T20:18:49.664Z,65.71
2019-03-20T20:32:38.008Z,69.08
2019-03-20T21:00:54.534Z,71.10
2019-03-20T21:05:01.253Z,70.81
2019-03-20T21:09:08.771Z,68.69
2019-03-20T21:13:13.973Z,70.14
2019-03-20T21:17:58.934Z,72.29
2019-03-20T21:22:42.286Z,72.22
2019-03-20T21:27:38.367Z,72.57
2019-03-20T21:32:13.569Z,71.20
2019-03-20T21:36:57.169Z,73.40
2019-03-20T21:41:40.705Z,74.19
2019-03-20T21:46:12.276Z,73.89
2019-03-20T21:50:56.821Z,74.31
2019-03-20T21:55:40.198Z,74.35
2019-03-20T22:00:19.256Z,74.78
2019-03-20T22:08:56.174Z,72.20
2019-03-20T22:13:39.476Z,71.70
2019-03-20T22:23:30.461Z,72.84
2019-03-20T22:28:13.934Z,74.40
2019-03-20T22:32:30.485Z,75.29
2019-03-20T22:36:39.687Z,75.29
2019-03-20T22:41:22.986Z,75.02
2019-03-20T22:46:06.392Z,74.90
2019-03-20T22:50:36.108Z,72.77
2019-03-20T22:55:22.262Z,73.55
2019-03-20T22:59:28.052Z,74.23
2019-03-20T23:03:38.311Z,73.98
2019-03-20T23:07:44.009Z,74.92
2019-03-20T23:11:49.710Z,75.33
2019-03-20T23:15:56.022Z,76.53
2019-03-20T23:20:21.919Z,76.21
2019-03-20T23:24:27.585Z,75.07
2019-03-20T23:28:33.296Z,75.52
2019-03-20T23:32:39.018Z,74.15
2019-03-20T23:36:44.746Z,76.16
2019-03-20T23:40:50.964Z,76.66
2019-03-20T23:44:58.433Z,76.67
2019-03-20T23:49:24.687Z,76.53
2019-03-20T23:53:30.408Z,77.00
2019-03-20T23:57:36.141Z,77.25
